createdAt,value
2022-10-18T00:00:45.464Z,15.32
2022-10-18T00:01:45.489Z,15.32
2022-10-18T00:02:45.440Z,15.31
2022-10-18T00:03:45.423Z,15.31
2022-10-18T00:04:45.414Z,15.31
2022-10-18T00:05:45.393Z,15.31
2022-10-18T00:06:45.382Z,15.28
2022-10-18T00:07:45.382Z,15.31
2022-10-18T00:08:45.372Z,15.29
2022-10-18T00:09:45.344Z,15.29
2022-10-18T00:10:45.347Z,15.29
2022-10-18T00:11:45.323Z,15.29
2022-10-18T00:13:45.296Z,15.29
2022-10-18T00:14:45.283Z,15.29
2022-10-18T00:15:45.273Z,15.31
2022-10-18T00:16:45.253Z,15.29
2022-10-18T00:17:45.235Z,15.32
2022-10-18T00:18:45.242Z,15.31
2022-10-18T00:19:45.213Z,15.31
2022-10-18T00:20:45.195Z,15.32
2022-10-18T00:22:45.186Z,15.31
2022-10-18T00:23:45.162Z,15.31
2022-10-18T00:24:45.161Z,15.29
2022-10-18T00:25:45.140Z,15.29
2022-10-18T00:26:45.131Z,15.29
2022-10-18T00:27:45.241Z,15.31
2022-10-18T00:28:45.117Z,15.29
2022-10-18T00:29:45.109Z,15.31
2022-10-18T00:30:45.109Z,15.31
2022-10-18T00:31:45.072Z,15.29
2022-10-18T00:32:45.048Z,15.28
2022-10-18T00:33:45.038Z,15.28
2022-10-18T00:34:45.122Z,15.31
2022-10-18T00:35:45.034Z,15.31
2022-10-18T00:36:44.981Z,15.28
2022-10-18T00:37:44.989Z,15.29
2022-10-18T00:38:44.963Z,15.29
2022-10-18T00:39:44.986Z,15.29
2022-10-18T00:40:44.932Z,15.29
2022-10-18T00:41:44.941Z,15.28
2022-10-18T00:42:44.910Z,15.28
2022-10-18T00:43:44.912Z,15.28
2022-10-18T00:44:44.904Z,15.27
2022-10-18T00:45:44.880Z,15.27
2022-10-18T00:46:44.864Z,15.27
2022-10-18T00:47:44.859Z,15.27
2022-10-18T00:48:44.873Z,15.25
2022-10-18T00:49:44.828Z,15.25
2022-10-18T00:50:44.800Z,15.25
2022-10-18T00:51:44.801Z,15.25
2022-10-18T00:52:44.795Z,15.25
2022-10-18T00:53:44.780Z,15.25
2022-10-18T00:54:44.770Z,15.23
2022-10-18T00:55:44.748Z,15.25
2022-10-18T00:56:44.729Z,15.25
2022-10-18T00:57:44.871Z,15.25
2022-10-18T00:58:44.701Z,15.25
2022-10-18T00:59:44.698Z,15.23
2022-10-18T01:00:44.678Z,15.23
2022-10-18T01:01:44.711Z,15.21
2022-10-18T01:02:44.648Z,15.23
2022-10-18T01:03:44.761Z,15.23
2022-10-18T01:04:44.639Z,15.23
2022-10-18T01:05:44.616Z,15.23
2022-10-18T01:06:44.664Z,15.21
2022-10-18T01:07:44.588Z,15.23
2022-10-18T01:08:44.588Z,15.23
2022-10-18T01:09:44.576Z,15.23
2022-10-18T01:10:44.556Z,15.23
2022-10-18T01:11:44.536Z,15.21
2022-10-18T01:12:44.538Z,15.20
2022-10-18T01:13:44.517Z,15.23
2022-10-18T01:14:44.505Z,15.21
2022-10-18T01:15:44.557Z,15.20
2022-10-18T01:16:44.478Z,15.21
2022-10-18T01:17:44.476Z,15.21
2022-10-18T01:18:44.459Z,15.20
2022-10-18T01:19:44.438Z,15.20
2022-10-18T01:20:44.454Z,15.20
2022-10-18T01:21:44.407Z,15.19
2022-10-18T01:22:44.403Z,15.20
2022-10-18T01:23:44.385Z,15.20
2022-10-18T01:24:44.369Z,15.19
2022-10-18T01:25:44.356Z,15.20
2022-10-18T01:26:44.375Z,15.21
2022-10-18T01:27:44.336Z,15.20
2022-10-18T01:28:44.415Z,15.20
2022-10-18T01:29:44.294Z,15.19
2022-10-18T01:30:44.304Z,15.19
2022-10-18T01:31:44.362Z,15.19
2022-10-18T01:32:44.275Z,15.17
2022-10-18T01:33:44.256Z,15.19
2022-10-18T01:34:44.246Z,15.17
2022-10-18T01:35:44.236Z,15.17
2022-10-18T01:36:44.205Z,15.16
2022-10-18T01:37:44.224Z,15.16
2022-10-18T01:38:44.203Z,15.16
2022-10-18T01:39:44.174Z,15.17
2022-10-18T01:40:44.174Z,15.16
2022-10-18T01:41:44.151Z,15.16
2022-10-18T01:42:44.142Z,15.16
2022-10-18T01:43:44.131Z,15.14
2022-10-18T01:44:44.118Z,15.14
2022-10-18T01:45:44.091Z,15.13
2022-10-18T01:46:44.082Z,15.13
2022-10-18T01:47:44.062Z,15.13
2022-10-18T01:48:44.062Z,15.13
2022-10-18T01:49:44.061Z,15.13
2022-10-18T01:50:44.024Z,15.11
2022-10-18T01:51:44.023Z,15.10
2022-10-18T01:52:44.010Z,15.10
2022-10-18T01:53:43.981Z,15.10
2022-10-18T01:54:44.002Z,15.11
2022-10-18T01:55:43.963Z,15.10
2022-10-18T01:56:43.951Z,15.07
2022-10-18T01:57:43.931Z,15.09
2022-10-18T01:58:43.914Z,15.07
2022-10-18T01:59:43.910Z,15.07
2022-10-18T02:00:43.901Z,15.07
2022-10-18T02:01:43.873Z,15.06
2022-10-18T02:02:43.870Z,15.06
2022-10-18T02:03:43.854Z,15.06
2022-10-18T02:04:43.864Z,15.07
2022-10-18T02:05:43.829Z,15.06
2022-10-18T02:06:43.812Z,15.03
2022-10-18T02:07:43.845Z,15.06
2022-10-18T02:08:43.780Z,15.03
2022-10-18T02:09:43.798Z,15.03
2022-10-18T02:10:43.758Z,15.03
2022-10-18T02:11:43.760Z,15.02
2022-10-18T02:12:43.731Z,15.02
2022-10-18T02:13:43.718Z,15.02
2022-10-18T02:14:43.729Z,15.03
2022-10-18T02:15:43.706Z,15.02
2022-10-18T02:16:43.681Z,15.02
2022-10-18T02:17:43.669Z,15.03
2022-10-18T02:18:43.649Z,15.02
2022-10-18T02:19:43.659Z,15.02
2022-10-18T02:20:43.628Z,15.03
2022-10-18T02:21:43.620Z,15.02
2022-10-18T02:22:43.598Z,15.02
2022-10-18T02:23:43.589Z,15.03
2022-10-18T02:24:43.587Z,15.02
2022-10-18T02:25:43.566Z,15.02
2022-10-18T02:26:43.547Z,15.02
2022-10-18T02:27:43.538Z,15.01
2022-10-18T02:28:43.527Z,15.02
2022-10-18T02:29:43.517Z,15.01
2022-10-18T02:30:43.497Z,15.02
2022-10-18T02:31:43.484Z,15.02
2022-10-18T02:32:43.473Z,15.02
2022-10-18T02:33:43.456Z,15.02
2022-10-18T02:34:43.447Z,15.02
2022-10-18T02:35:43.429Z,15.02
2022-10-18T02:36:43.440Z,15.03
2022-10-18T02:37:43.406Z,15.02
2022-10-18T02:38:43.387Z,15.02
2022-10-18T02:39:43.387Z,15.03
2022-10-18T02:40:43.369Z,15.02
2022-10-18T02:41:43.356Z,15.03
2022-10-18T02:42:43.327Z,15.03
2022-10-18T02:43:43.316Z,15.02
2022-10-18T02:44:43.335Z,15.02
2022-10-18T02:45:43.299Z,15.02
2022-10-18T02:46:43.285Z,15.02
2022-10-18T02:47:43.274Z,15.02
2022-10-18T02:48:43.256Z,15.02
2022-10-18T02:49:43.255Z,15.02
2022-10-18T02:50:43.225Z,15.03
2022-10-18T02:51:43.234Z,15.03
2022-10-18T02:52:43.196Z,15.02
2022-10-18T02:53:43.194Z,15.02
2022-10-18T02:54:43.185Z,15.01
2022-10-18T02:55:43.165Z,15.02
2022-10-18T02:56:43.145Z,15.01
2022-10-18T02:57:43.134Z,15.01
2022-10-18T02:58:43.124Z,15.01
2022-10-18T02:59:43.126Z,14.99
2022-10-18T03:00:43.085Z,15.01
2022-10-18T03:01:43.122Z,14.98
2022-10-18T03:02:43.076Z,14.99
2022-10-18T03:03:43.053Z,14.99
2022-10-18T03:04:43.053Z,14.99
2022-10-18T03:05:43.033Z,14.98
2022-10-18T03:06:43.017Z,14.98
2022-10-18T03:07:42.994Z,14.98
2022-10-18T03:08:42.988Z,14.98
2022-10-18T03:09:42.992Z,14.98
2022-10-18T03:10:42.966Z,14.96
2022-10-18T03:11:42.965Z,14.96
2022-10-18T03:12:42.933Z,14.95
2022-10-18T03:13:42.913Z,14.96
2022-10-18T03:14:43.015Z,14.96
2022-10-18T03:15:42.892Z,14.96
2022-10-18T03:16:42.891Z,14.95
2022-10-18T03:17:42.868Z,14.96
2022-10-18T03:18:42.855Z,14.95
2022-10-18T03:19:42.870Z,14.96
2022-10-18T03:20:42.864Z,14.98
2022-10-18T03:21:42.812Z,14.98
2022-10-18T03:22:42.811Z,14.98
2022-10-18T03:23:42.797Z,14.98
2022-10-18T03:24:42.799Z,14.98
2022-10-18T03:25:45.605Z,14.99
2022-10-18T03:26:42.762Z,14.98
2022-10-18T03:27:42.744Z,14.98
2022-10-18T03:28:42.820Z,14.99
2022-10-18T03:29:42.732Z,14.98
2022-10-18T03:30:42.714Z,14.99
2022-10-18T03:31:42.693Z,14.99
2022-10-18T03:32:42.670Z,14.99
2022-10-18T03:33:42.669Z,14.99
2022-10-18T03:34:42.669Z,14.99
2022-10-18T03:35:42.631Z,14.99
2022-10-18T03:36:42.631Z,15.01
2022-10-18T03:37:42.603Z,14.99
2022-10-18T03:38:42.592Z,14.99
2022-10-18T03:39:42.614Z,14.99
2022-10-18T03:40:42.579Z,14.98
2022-10-18T03:41:42.560Z,15.01
2022-10-18T03:42:42.541Z,15.01
2022-10-18T03:43:42.538Z,15.01
2022-10-18T03:44:42.538Z,15.01
2022-10-18T03:45:42.509Z,15.01
2022-10-18T03:46:42.499Z,15.01
2022-10-18T03:47:42.471Z,15.02
2022-10-18T03:48:42.476Z,15.02
2022-10-18T03:49:42.474Z,15.02
2022-10-18T03:50:42.448Z,15.02
2022-10-18T03:51:42.426Z,15.02
2022-10-18T03:52:42.420Z,15.03
2022-10-18T03:53:42.416Z,15.03
2022-10-18T03:54:42.404Z,15.03
2022-10-18T03:55:42.377Z,15.06
2022-10-18T03:56:42.358Z,15.03
2022-10-18T03:57:42.347Z,15.06
2022-10-18T03:58:42.346Z,15.06
2022-10-18T03:59:42.334Z,15.06
2022-10-18T04:00:42.317Z,15.06
2022-10-18T04:01:42.510Z,15.06
2022-10-18T04:02:42.295Z,15.09
2022-10-18T04:03:42.267Z,15.03
2022-10-18T04:04:42.279Z,15.07
2022-10-18T04:05:42.247Z,15.06
2022-10-18T04:06:42.238Z,15.06
2022-10-18T04:07:42.229Z,15.07
2022-10-18T04:08:42.207Z,15.07
2022-10-18T04:09:42.210Z,15.07
2022-10-18T04:10:42.189Z,15.06
2022-10-18T04:11:42.170Z,15.06
2022-10-18T04:12:42.169Z,15.07
2022-10-18T04:13:42.139Z,15.06
2022-10-18T04:14:42.154Z,15.06
2022-10-18T04:15:42.114Z,15.07
2022-10-18T04:16:42.107Z,15.06
2022-10-18T04:17:42.093Z,15.03
2022-10-18T04:18:42.079Z,15.03
2022-10-18T04:19:42.075Z,15.06
2022-10-18T04:20:42.065Z,15.02
2022-10-18T04:21:42.044Z,15.03
2022-10-18T04:22:42.025Z,15.02
2022-10-18T04:23:42.007Z,15.03
2022-10-18T04:24:42.034Z,15.03
2022-10-18T04:26:41.975Z,15.01
2022-10-18T04:27:41.954Z,15.02
2022-10-18T04:28:41.998Z,15.01
2022-10-18T04:29:41.947Z,15.02
2022-10-18T04:30:41.925Z,15.02
2022-10-18T04:31:41.907Z,15.01
2022-10-18T04:32:41.896Z,15.01
2022-10-18T04:33:41.913Z,15.02
2022-10-18T04:35:41.862Z,15.02
2022-10-18T04:36:41.842Z,15.02
2022-10-18T04:37:41.832Z,15.02
2022-10-18T04:38:41.810Z,15.03
2022-10-18T04:39:41.814Z,15.03
2022-10-18T04:40:41.782Z,15.02
2022-10-18T04:41:41.771Z,15.03
2022-10-18T04:42:41.780Z,15.03
2022-10-18T04:43:41.782Z,15.02
2022-10-18T04:44:41.762Z,15.02
2022-10-18T04:45:41.723Z,15.03
2022-10-18T04:46:41.721Z,15.03
2022-10-18T04:47:41.694Z,15.03
2022-10-18T04:48:41.682Z,15.03
2022-10-18T04:49:41.681Z,15.03
2022-10-18T04:50:41.661Z,15.06
2022-10-18T04:51:41.642Z,15.06
2022-10-18T04:52:41.675Z,15.03
2022-10-18T04:53:41.620Z,15.06
2022-10-18T04:54:41.626Z,15.06
2022-10-18T04:55:41.587Z,15.07
2022-10-18T04:56:41.585Z,15.07
2022-10-18T04:57:41.560Z,15.07
2022-10-18T04:58:41.547Z,15.06
2022-10-18T04:59:41.540Z,15.07
2022-10-18T05:00:41.521Z,15.09
2022-10-18T05:01:41.568Z,15.09
2022-10-18T05:02:41.500Z,15.09
2022-10-18T05:03:41.480Z,15.09
2022-10-18T05:04:41.480Z,15.09
2022-10-18T05:06:00.098Z,15.09
2022-10-18T05:06:42.449Z,15.07
2022-10-18T05:07:41.429Z,15.09
2022-10-18T05:08:41.417Z,15.10
2022-10-18T05:09:41.416Z,15.09
2022-10-18T05:10:41.401Z,15.09
2022-10-18T05:11:41.371Z,15.07
2022-10-18T05:12:41.370Z,15.10
2022-10-18T05:13:41.349Z,15.09
2022-10-18T05:14:41.369Z,15.09
2022-10-18T05:15:41.318Z,15.09
2022-10-18T05:16:41.329Z,15.10
2022-10-18T05:17:41.299Z,15.09
2022-10-18T05:18:41.287Z,15.10
2022-10-18T05:19:41.286Z,15.10
2022-10-18T05:20:41.346Z,15.10
2022-10-18T05:21:41.247Z,15.10
2022-10-18T05:22:41.236Z,15.10
2022-10-18T05:23:41.227Z,15.10
2022-10-18T05:24:41.227Z,15.10
2022-10-18T05:25:41.198Z,15.09
2022-10-18T05:26:41.176Z,15.10
2022-10-18T05:27:41.177Z,15.10
2022-10-18T05:28:41.648Z,15.11
2022-10-18T05:29:41.165Z,15.11
2022-10-18T05:30:41.137Z,15.11
2022-10-18T05:31:41.117Z,15.10
2022-10-18T05:32:41.092Z,15.11
2022-10-18T05:33:41.087Z,15.10
2022-10-18T05:34:41.076Z,15.11
2022-10-18T05:35:41.065Z,15.11
2022-10-18T05:36:41.046Z,15.11
2022-10-18T05:37:41.037Z,15.11
2022-10-18T05:38:41.020Z,15.11
2022-10-18T05:39:41.044Z,15.11
2022-10-18T05:40:40.995Z,15.11
2022-10-18T05:41:40.985Z,15.11
2022-10-18T05:42:40.971Z,15.11
2022-10-18T05:43:40.966Z,15.11
2022-10-18T05:44:40.945Z,15.13
2022-10-18T05:45:40.934Z,15.11
2022-10-18T05:46:40.927Z,15.11
2022-10-18T05:47:40.915Z,15.13
2022-10-18T05:48:40.883Z,15.13
2022-10-18T05:49:40.894Z,15.11
2022-10-18T05:50:40.864Z,15.11
2022-10-18T05:51:40.853Z,15.13
2022-10-18T05:52:40.844Z,15.13
2022-10-18T05:53:40.826Z,15.13
2022-10-18T05:54:40.823Z,15.14
2022-10-18T05:55:40.796Z,15.14
2022-10-18T05:56:40.783Z,15.14
2022-10-18T05:57:40.783Z,15.14
2022-10-18T05:58:40.755Z,15.16
2022-10-18T05:59:40.766Z,15.16
2022-10-18T06:00:40.743Z,15.14
2022-10-18T06:01:40.722Z,15.16
2022-10-18T06:02:40.756Z,15.14
2022-10-18T06:03:40.703Z,15.14
2022-10-18T06:04:40.702Z,15.16
2022-10-18T06:05:40.708Z,15.16
2022-10-18T06:06:40.678Z,15.16
2022-10-18T06:07:40.644Z,15.17
2022-10-18T06:08:40.626Z,15.16
2022-10-18T06:09:40.630Z,15.13
2022-10-18T06:10:40.596Z,15.16
2022-10-18T06:11:40.596Z,15.16
2022-10-18T06:12:40.575Z,15.14
2022-10-18T06:13:40.565Z,15.16
2022-10-18T06:14:41.503Z,15.14
2022-10-18T06:15:40.532Z,15.14
2022-10-18T06:16:40.528Z,15.17
2022-10-18T06:17:40.504Z,15.17
2022-10-18T06:18:40.504Z,15.17
2022-10-18T06:19:40.492Z,15.16
2022-10-18T06:20:40.477Z,15.16
2022-10-18T06:21:40.453Z,15.17
2022-10-18T06:22:40.440Z,15.16
2022-10-18T06:23:40.423Z,15.16
2022-10-18T06:24:40.443Z,15.17
2022-10-18T06:25:40.413Z,15.19
2022-10-18T06:26:40.381Z,15.19
2022-10-18T06:27:40.372Z,15.19
2022-10-18T06:28:40.435Z,15.19
2022-10-18T06:29:40.363Z,15.17
2022-10-18T06:30:40.330Z,15.19
2022-10-18T06:31:40.319Z,15.19
2022-10-18T06:32:40.318Z,15.19
2022-10-18T06:33:40.296Z,15.19
2022-10-18T06:34:40.290Z,15.20
2022-10-18T06:35:40.261Z,15.21
2022-10-18T06:36:40.250Z,15.19
2022-10-18T06:37:40.277Z,15.20
2022-10-18T06:38:40.223Z,15.20
2022-10-18T06:39:40.218Z,15.21
2022-10-18T06:40:40.212Z,15.21
2022-10-18T06:41:40.188Z,15.21
2022-10-18T06:42:40.176Z,15.20
2022-10-18T06:43:40.170Z,15.20
2022-10-18T06:44:40.168Z,15.21
2022-10-18T06:45:40.129Z,15.21
2022-10-18T06:46:40.131Z,15.21
2022-10-18T06:47:40.109Z,15.23
2022-10-18T06:48:40.089Z,15.21
2022-10-18T06:49:40.090Z,15.23
2022-10-18T06:50:40.060Z,15.21
2022-10-18T06:51:40.066Z,15.25
2022-10-18T06:52:40.041Z,15.23
2022-10-18T06:53:44.205Z,15.23
2022-10-18T06:54:41.017Z,15.23
2022-10-18T06:55:39.999Z,15.23
2022-10-18T06:56:39.976Z,15.25
2022-10-18T06:57:39.977Z,15.25
2022-10-18T06:58:39.969Z,15.27
2022-10-18T06:59:39.959Z,15.27
2022-10-18T07:00:39.931Z,15.27
2022-10-18T07:01:39.987Z,15.27
2022-10-18T07:02:39.899Z,15.27
2022-10-18T07:03:39.886Z,15.28
2022-10-18T07:04:39.910Z,15.28
2022-10-18T07:05:39.945Z,15.28
2022-10-18T07:06:39.850Z,15.28
2022-10-18T07:07:39.826Z,15.29
2022-10-18T07:08:39.814Z,15.29
2022-10-18T07:09:39.853Z,15.29
2022-10-18T07:10:39.814Z,15.31
2022-10-18T07:11:39.789Z,15.29
2022-10-18T07:12:39.773Z,15.31
2022-10-18T07:13:39.763Z,15.32
2022-10-18T07:14:39.755Z,15.34
2022-10-18T07:15:39.736Z,15.32
2022-10-18T07:16:39.715Z,15.35
2022-10-18T07:17:39.733Z,15.36
2022-10-18T07:18:39.685Z,15.36
2022-10-18T07:19:39.684Z,15.38
2022-10-18T07:20:39.661Z,15.38
2022-10-18T07:21:39.655Z,15.38
2022-10-18T07:22:39.634Z,15.38
2022-10-18T07:23:39.612Z,15.38
2022-10-18T07:24:39.626Z,15.38
2022-10-18T07:25:39.583Z,15.39
2022-10-18T07:26:39.590Z,15.38
2022-10-18T07:27:39.563Z,15.39
2022-10-18T07:28:39.543Z,15.41
2022-10-18T07:29:39.552Z,15.41
2022-10-18T07:30:39.521Z,15.41
2022-10-18T07:31:39.503Z,15.41
2022-10-18T07:32:39.505Z,15.41
2022-10-18T07:33:39.480Z,15.43
2022-10-18T07:34:39.483Z,15.43
2022-10-18T07:35:39.458Z,15.41
2022-10-18T07:36:39.440Z,15.44
2022-10-18T07:37:39.432Z,15.43
2022-10-18T07:38:39.414Z,15.44
2022-10-18T07:39:39.421Z,15.44
2022-10-18T07:40:39.401Z,15.47
2022-10-18T07:41:39.370Z,15.47
2022-10-18T07:42:39.372Z,15.49
2022-10-18T07:43:39.344Z,15.51
2022-10-18T07:44:39.342Z,15.50
2022-10-18T07:45:39.325Z,15.51
2022-10-18T07:46:39.301Z,15.53
2022-10-18T07:47:39.697Z,15.54
2022-10-18T07:48:39.293Z,15.56
2022-10-18T07:49:39.272Z,15.56
2022-10-18T07:50:39.250Z,15.57
2022-10-18T07:51:39.233Z,15.59
2022-10-18T07:52:39.252Z,15.59
2022-10-18T07:53:39.221Z,15.60
2022-10-18T07:54:39.239Z,15.60
2022-10-18T07:55:39.179Z,15.64
2022-10-18T07:56:39.179Z,15.64
2022-10-18T07:57:39.168Z,15.65
2022-10-18T07:58:39.148Z,15.67
2022-10-18T07:59:39.156Z,15.68
2022-10-18T08:00:39.127Z,15.71
2022-10-18T08:01:39.148Z,15.71
2022-10-18T08:02:39.099Z,15.72
2022-10-18T08:03:39.087Z,15.75
2022-10-18T08:04:39.078Z,15.76
2022-10-18T08:05:39.063Z,15.78
2022-10-18T08:06:39.052Z,15.83
2022-10-18T08:07:39.029Z,15.84
2022-10-18T08:08:39.008Z,15.87
2022-10-18T08:09:39.010Z,15.90
2022-10-18T08:10:38.980Z,15.89
2022-10-18T08:11:38.965Z,15.92
2022-10-18T08:12:38.970Z,15.92
2022-10-18T08:13:38.944Z,15.93
2022-10-18T08:14:38.957Z,15.93
2022-10-18T08:15:38.915Z,15.93
2022-10-18T08:16:38.898Z,15.92
2022-10-18T08:17:38.886Z,15.90
2022-10-18T08:18:38.868Z,15.87
2022-10-18T08:19:44.623Z,15.87
2022-10-18T08:20:39.878Z,15.87
2022-10-18T08:21:38.842Z,15.90
2022-10-18T08:22:38.826Z,15.89
2022-10-18T08:23:38.807Z,15.90
2022-10-18T08:24:38.818Z,15.90
2022-10-18T08:25:38.797Z,15.90
2022-10-18T08:26:38.779Z,15.90
2022-10-18T08:27:38.757Z,15.92
2022-10-18T08:28:38.794Z,15.93
2022-10-18T08:29:38.757Z,15.90
2022-10-18T08:30:38.724Z,15.93
2022-10-18T08:31:38.709Z,15.93
2022-10-18T08:32:38.697Z,15.94
2022-10-18T08:33:38.673Z,15.96
2022-10-18T08:35:38.635Z,15.96
2022-10-18T08:36:38.644Z,15.97
2022-10-18T08:37:38.625Z,15.96
2022-10-18T08:38:38.617Z,15.96
2022-10-18T08:39:38.603Z,15.96
2022-10-18T08:40:38.639Z,15.96
2022-10-18T08:41:38.576Z,15.97
2022-10-18T08:42:38.544Z,15.97
2022-10-18T08:43:38.547Z,15.97
2022-10-18T08:44:38.543Z,15.97
2022-10-18T08:45:42.224Z,15.96
2022-10-18T08:46:38.510Z,15.96
2022-10-18T08:47:38.483Z,15.94
2022-10-18T08:48:38.485Z,15.94
2022-10-18T08:49:38.475Z,15.94
2022-10-18T08:50:38.452Z,15.93
2022-10-18T08:51:38.435Z,15.92
2022-10-18T08:52:38.426Z,15.93
2022-10-18T08:53:39.978Z,15.93
2022-10-18T08:54:38.403Z,15.94
2022-10-18T08:55:38.371Z,15.94
2022-10-18T08:56:38.373Z,15.94
2022-10-18T08:57:38.353Z,15.94
2022-10-18T08:58:38.342Z,15.97
2022-10-18T08:59:38.344Z,15.97
2022-10-18T09:00:38.314Z,16.00
2022-10-18T09:01:38.367Z,16.01
2022-10-18T09:02:38.293Z,16.01
2022-10-18T09:03:38.324Z,16.02
2022-10-18T09:04:38.274Z,16.04
2022-10-18T09:05:38.242Z,16.02
2022-10-18T09:06:38.241Z,16.05
2022-10-18T09:07:38.213Z,16.07
2022-10-18T09:08:38.212Z,16.08
2022-10-18T09:09:38.201Z,16.11
2022-10-18T09:10:38.190Z,16.12
2022-10-18T09:11:38.162Z,16.14
2022-10-18T09:12:38.161Z,16.14
2022-10-18T09:13:38.139Z,16.17
2022-10-18T09:14:38.143Z,16.15
2022-10-18T09:15:38.109Z,16.15
2022-10-18T09:16:38.100Z,16.17
2022-10-18T09:17:38.089Z,16.20
2022-10-18T09:18:38.070Z,16.21
2022-10-18T09:19:38.084Z,16.21
2022-10-18T09:20:38.042Z,16.20
2022-10-18T09:21:38.029Z,16.23
2022-10-18T09:22:38.010Z,16.23
2022-10-18T09:23:38.008Z,16.23
2022-10-18T09:24:37.998Z,16.24
2022-10-18T09:25:37.979Z,16.25
2022-10-18T09:26:38.000Z,16.27
2022-10-18T09:27:37.967Z,16.28
2022-10-18T09:28:37.990Z,16.31
2022-10-18T09:29:38.045Z,16.34
2022-10-18T09:30:37.909Z,16.35
2022-10-18T09:31:37.908Z,16.38
2022-10-18T09:32:37.868Z,16.41
2022-10-18T09:33:37.867Z,16.41
2022-10-18T09:34:37.901Z,16.42
2022-10-18T09:35:37.837Z,16.45
2022-10-18T09:36:37.829Z,16.48
2022-10-18T09:37:37.809Z,16.50
2022-10-18T09:38:37.808Z,16.56
2022-10-18T09:39:37.800Z,16.60
2022-10-18T09:40:37.776Z,16.61
2022-10-18T09:41:37.766Z,16.61
2022-10-18T09:42:37.755Z,16.64
2022-10-18T09:43:37.745Z,16.63
2022-10-18T09:44:37.748Z,16.66
2022-10-18T09:45:37.707Z,16.68
2022-10-18T09:46:37.699Z,16.70
2022-10-18T09:47:37.689Z,16.71
2022-10-18T09:48:37.676Z,16.76
2022-10-18T09:49:37.671Z,16.81
2022-10-18T09:50:37.658Z,16.82
2022-10-18T09:51:37.627Z,16.88
2022-10-18T09:52:37.634Z,16.88
2022-10-18T09:53:37.606Z,16.96
2022-10-18T09:54:37.613Z,17.06
2022-10-18T09:55:37.584Z,17.14
2022-10-18T09:56:40.862Z,17.21
2022-10-18T09:57:37.546Z,17.25
2022-10-18T09:58:37.546Z,17.33
2022-10-18T09:59:37.534Z,17.33
2022-10-18T10:00:37.514Z,17.37
2022-10-18T10:01:37.496Z,17.40
2022-10-18T10:02:37.534Z,17.43
2022-10-18T10:03:37.476Z,17.44
2022-10-18T10:04:37.475Z,17.48
2022-10-18T10:05:37.443Z,17.52
2022-10-18T10:06:37.483Z,17.52
2022-10-18T10:07:37.830Z,17.52
2022-10-18T10:08:37.464Z,17.52
2022-10-18T10:09:37.473Z,17.52
2022-10-18T10:10:37.505Z,17.55
2022-10-18T10:11:37.364Z,17.54
2022-10-18T10:12:37.372Z,17.51
2022-10-18T10:13:37.357Z,17.52
2022-10-18T10:14:37.344Z,17.54
2022-10-18T10:15:39.364Z,17.52
2022-10-18T10:16:37.313Z,17.52
2022-10-18T10:17:37.295Z,17.51
2022-10-18T10:18:37.285Z,17.51
2022-10-18T10:19:37.282Z,17.51
2022-10-18T10:20:37.253Z,17.51
2022-10-18T10:21:37.243Z,17.54
2022-10-18T10:22:37.242Z,17.58
2022-10-18T10:23:37.256Z,17.66
2022-10-18T10:24:37.222Z,17.72
2022-10-18T10:25:37.202Z,17.79
2022-10-18T10:26:37.189Z,17.92
2022-10-18T10:27:37.173Z,18.10
2022-10-18T10:28:37.348Z,18.25
2022-10-18T10:29:44.555Z,18.33
2022-10-18T10:30:38.122Z,18.35
2022-10-18T10:31:37.143Z,18.33
2022-10-18T10:32:37.112Z,18.27
2022-10-18T10:33:37.080Z,18.29
2022-10-18T10:34:39.806Z,18.30
2022-10-18T10:35:54.258Z,18.27
2022-10-18T10:36:38.059Z,18.21
2022-10-18T10:37:37.031Z,18.20
2022-10-18T10:38:37.030Z,18.18
2022-10-18T10:39:37.032Z,18.17
2022-10-18T10:40:37.006Z,18.23
2022-10-18T10:41:36.983Z,18.23
2022-10-18T10:42:36.971Z,18.26
2022-10-18T10:43:38.693Z,18.20
2022-10-18T10:44:36.970Z,18.21
2022-10-18T10:45:36.932Z,18.21
2022-10-18T10:46:36.919Z,18.26
2022-10-18T10:47:36.909Z,18.26
2022-10-18T10:48:36.918Z,18.27
2022-10-18T10:49:41.191Z,18.30
2022-10-18T10:50:37.348Z,18.30
2022-10-18T10:51:36.858Z,18.26
2022-10-18T10:52:36.935Z,18.27
2022-10-18T10:53:36.828Z,18.26
2022-10-18T10:54:36.840Z,18.23
2022-10-18T10:55:36.801Z,18.21
2022-10-18T10:56:36.822Z,18.18
2022-10-18T10:57:36.808Z,18.14
2022-10-18T10:58:36.784Z,18.14
2022-10-18T10:59:36.803Z,18.12
2022-10-18T11:00:36.748Z,18.14
2022-10-18T11:01:36.738Z,18.15
2022-10-18T11:02:36.788Z,18.18
2022-10-18T11:03:36.788Z,18.35
2022-10-18T11:04:36.711Z,18.54
2022-10-18T11:05:36.681Z,18.80
2022-10-18T11:06:36.667Z,18.92
2022-10-18T11:07:36.659Z,19.06
2022-10-18T11:08:36.669Z,19.11
2022-10-18T11:09:36.637Z,19.14
2022-10-18T11:10:36.619Z,19.19
2022-10-18T11:11:36.597Z,19.22
2022-10-18T11:12:36.579Z,19.22
2022-10-18T11:13:36.567Z,19.19
2022-10-18T11:14:36.568Z,19.14
2022-10-18T11:15:36.556Z,19.10
2022-10-18T11:16:36.545Z,19.04
2022-10-18T11:17:36.527Z,19.02
2022-10-18T11:18:36.526Z,19.00
2022-10-18T11:19:36.498Z,18.99
2022-10-18T11:20:36.485Z,18.95
2022-10-18T11:21:36.473Z,18.94
2022-10-18T11:22:36.467Z,18.92
2022-10-18T11:23:36.445Z,18.92
2022-10-18T11:24:36.444Z,18.92
2022-10-18T11:25:36.416Z,18.94
2022-10-18T11:26:40.901Z,18.98
2022-10-18T11:27:37.388Z,19.08
2022-10-18T11:28:36.440Z,19.23
2022-10-18T11:29:36.385Z,19.36
2022-10-18T11:30:36.366Z,19.47
2022-10-18T11:31:36.354Z,19.48
2022-10-18T11:32:36.329Z,19.46
2022-10-18T11:33:56.713Z,19.36
2022-10-18T11:34:37.339Z,19.29
2022-10-18T11:35:36.284Z,19.31
2022-10-18T11:36:36.829Z,19.37
2022-10-18T11:37:38.504Z,19.46
2022-10-18T11:38:36.265Z,19.51
2022-10-18T11:39:36.245Z,19.55
2022-10-18T11:40:36.235Z,19.55
2022-10-18T11:41:36.213Z,19.56
2022-10-18T11:42:39.829Z,19.56
2022-10-18T11:44:00.608Z,19.56
2022-10-18T11:44:37.188Z,19.46
2022-10-18T11:45:36.169Z,19.50
2022-10-18T11:46:36.161Z,19.61
2022-10-18T11:47:36.136Z,19.74
2022-10-18T11:48:36.124Z,19.83
2022-10-18T11:49:36.123Z,19.83
2022-10-18T11:50:36.098Z,19.84
2022-10-18T11:51:50.313Z,19.87
2022-10-18T11:52:37.074Z,19.83
2022-10-18T11:53:36.063Z,19.87
2022-10-18T11:54:36.149Z,19.91
2022-10-18T11:55:36.033Z,20.01
2022-10-18T11:56:36.026Z,20.02
2022-10-18T11:57:36.187Z,20.03
2022-10-18T11:58:35.992Z,20.01
2022-10-18T11:59:36.001Z,19.99
2022-10-18T12:00:35.988Z,20.02
2022-10-18T12:01:35.967Z,19.99
2022-10-18T12:02:36.402Z,19.99
2022-10-18T12:03:35.931Z,19.95
2022-10-18T12:04:40.912Z,19.98
2022-10-18T12:05:36.922Z,20.01
2022-10-18T12:06:35.897Z,19.96
2022-10-18T12:07:35.892Z,19.88
2022-10-18T12:08:35.873Z,19.86
2022-10-18T12:09:35.926Z,19.92
2022-10-18T12:10:59.950Z,19.94
2022-10-18T12:11:36.828Z,19.98
2022-10-18T12:12:35.823Z,20.02
2022-10-18T12:13:35.801Z,20.05
2022-10-18T12:14:35.802Z,20.01
2022-10-18T12:15:35.793Z,19.98
2022-10-18T12:16:50.623Z,19.98
2022-10-18T12:17:43.152Z,19.98
2022-10-18T12:18:36.739Z,19.94
2022-10-18T12:19:35.734Z,19.92
2022-10-18T12:20:35.719Z,19.87
2022-10-18T12:21:35.703Z,19.83
2022-10-18T12:22:35.681Z,19.83
2022-10-18T12:23:35.675Z,19.80
2022-10-18T12:24:35.690Z,19.80
2022-10-18T12:25:35.650Z,19.73
2022-10-18T12:26:35.630Z,19.69
2022-10-18T12:27:35.620Z,19.68
2022-10-18T12:28:35.681Z,19.63
2022-10-18T12:29:35.633Z,19.59
2022-10-18T12:30:35.580Z,19.56
2022-10-18T12:31:35.570Z,19.55
2022-10-18T12:32:35.622Z,19.54
2022-10-18T12:33:35.549Z,19.47
2022-10-18T12:34:35.542Z,19.44
2022-10-18T12:35:35.533Z,19.41
2022-10-18T12:36:35.515Z,19.40
2022-10-18T12:37:35.781Z,19.36
2022-10-18T12:38:35.489Z,19.33
2022-10-18T12:39:43.591Z,19.36
2022-10-18T12:40:36.459Z,19.39
2022-10-18T12:41:35.468Z,19.39
2022-10-18T12:42:35.432Z,19.41
2022-10-18T12:43:35.419Z,19.43
2022-10-18T12:44:35.420Z,19.44
2022-10-18T12:45:35.435Z,19.44
2022-10-18T12:46:35.381Z,19.44
2022-10-18T12:47:35.670Z,19.41
2022-10-18T12:48:35.353Z,19.36
2022-10-18T12:49:35.360Z,19.37
2022-10-18T12:50:35.347Z,19.32
2022-10-18T12:51:35.319Z,19.32
2022-10-18T12:52:35.319Z,19.29
2022-10-18T12:53:35.299Z,19.26
2022-10-18T12:54:35.299Z,19.28
2022-10-18T12:55:35.303Z,19.28
2022-10-18T12:56:35.247Z,19.26
2022-10-18T12:57:35.238Z,19.22